Time;durP1;ratioP1;P1;durP2;ratioP2;P2;SDS_P1;SDS_P2;PMS_P1;PMS_P2;Temp;Humidity;BMP_temperature;BMP_pressure;BME280_temperature;BME280_humidity;BME280_pressure;Samples;Min_cycle;Max_cycle;Signal;HPM_P1;HPM_P2
2024/03/15 00:02:10;;;;;;;5.30;4.90;;;;;;;13.08;77.09;100073.50;5120552;28;20582;-81
2024/03/15 00:04:37;;;;;;;5.20;4.90;;;;;;;13.22;77.23;100073.00;5119864;27;20290;-80
2024/03/15 00:07:05;;;;;;;5.13;4.73;;;;;;;13.22;77.02;100075.63;5119540;27;20630;-81
2024/03/15 00:09:32;;;;;;;5.67;5.33;;;;;;;13.25;76.42;100090.38;5120728;27;20608;-81
2024/03/15 00:11:59;;;;;;;5.87;5.40;;;;;;;13.32;75.84;100097.16;5121767;27;20205;-82
2024/03/15 00:14:26;;;;;;;5.77;5.37;;;;;;;13.42;76.04;100102.88;5118170;27;20205;-81
2024/03/15 00:16:53;;;;;;;5.97;5.43;;;;;;;13.43;76.45;100102.84;5117523;28;20234;-82
2024/03/15 00:19:20;;;;;;;4.70;4.40;;;;;;;13.46;75.90;100110.63;5100036;28;20229;-81
2024/03/15 00:21:46;;;;;;;5.30;4.80;;;;;;;13.40;76.06;100116.06;5100559;28;20210;-82
2024/03/15 00:24:13;;;;;;;5.50;5.10;;;;;;;13.30;76.71;100099.81;5099665;28;20699;-82
2024/03/15 00:26:40;;;;;;;5.00;4.70;;;;;;;13.26;77.22;100086.81;5099689;28;20209;-80
2024/03/15 00:29:07;;;;;;;5.30;4.90;;;;;;;13.29;76.93;100089.34;5100899;28;20353;-82
2024/03/15 00:31:33;;;;;;;5.27;4.87;;;;;;;13.15;77.37;100079.34;5100108;28;20684;-82
2024/03/15 00:34:00;;;;;;;4.80;4.50;;;;;;;13.22;77.74;100080.84;5100708;28;20202;-81
2024/03/15 00:36:26;;;;;;;5.57;5.17;;;;;;;13.18;77.61;100066.16;5100660;28;20206;-81
2024/03/15 00:38:53;;;;;;;5.30;4.90;;;;;;;13.25;77.90;100056.28;5100769;28;20226;-82
2024/03/15 00:41:19;;;;;;;4.60;4.30;;;;;;;13.27;78.19;100054.47;5099547;28;20282;-81
2024/03/15 00:43:46;;;;;;;5.40;5.00;;;;;;;13.10;77.33;100045.47;5120466;28;20200;-81
2024/03/15 00:46:12;;;;;;;5.50;5.10;;;;;;;13.31;77.21;100051.72;5131987;28;20223;-82
2024/03/15 00:48:40;;;;;;;5.10;4.63;;;;;;;13.39;77.11;100058.44;5104793;28;20210;-81
2024/03/15 00:51:07;;;;;;;5.30;4.90;;;;;;;13.36;77.76;100050.69;5100293;28;20273;-83
2024/03/15 00:53:34;;;;;;;5.10;4.70;;;;;;;13.41;76.66;100064.50;5099922;28;20270;-81
2024/03/15 00:56:00;;;;;;;5.30;4.90;;;;;;;13.38;76.65;100065.47;5100393;28;20235;-83
2024/03/15 00:58:27;;;;;;;5.30;4.90;;;;;;;13.44;75.99;100080.97;5101098;28;20235;-82
2024/03/15 01:00:53;;;;;;;5.70;5.20;;;;;;;13.44;76.27;100074.88;5100436;28;20585;-81
2024/03/15 01:03:20;;;;;;;5.50;5.10;;;;;;;13.52;76.88;100075.44;5100573;28;20263;-82
2024/03/15 01:05:47;;;;;;;5.83;5.43;;;;;;;13.47;76.43;100072.13;5101081;28;20325;-82
2024/03/15 01:08:14;;;;;;;5.73;5.33;;;;;;;13.44;75.98;100078.34;5100420;28;20255;-82
2024/03/15 01:10:41;;;;;;;5.33;4.90;;;;;;;13.56;75.86;100076.16;5099750;28;20230;-82
2024/03/15 01:13:07;;;;;;;5.73;5.37;;;;;;;13.53;75.96;100085.00;5101829;28;20696;-83
2024/03/15 01:15:34;;;;;;;5.00;4.60;;;;;;;13.56;75.65;100086.66;5119495;28;20196;-82
2024/03/15 01:18:01;;;;;;;5.73;5.33;;;;;;;13.60;75.53;100083.03;5119224;28;20209;-82
2024/03/15 01:20:27;;;;;;;5.73;5.30;;;;;;;13.59;76.19;100074.28;5118538;28;20230;-81
2024/03/15 01:22:55;;;;;;;6.27;5.40;;;;;;;13.58;76.23;100079.63;5119611;28;20223;-83
2024/03/15 01:25:22;;;;;;;5.93;5.13;;;;;;;13.47;75.39;100086.09;5120041;28;20222;-81
2024/03/15 01:27:48;;;;;;;5.47;5.17;;;;;;;13.56;75.46;100090.16;5120229;27;20254;-82
2024/03/15 01:30:15;;;;;;;5.60;5.30;;;;;;;13.61;75.55;100082.09;5123015;27;20221;-83
2024/03/15 01:32:41;;;;;;;5.87;5.00;;;;;;;13.61;76.00;100093.44;5123375;27;20206;-82
2024/03/15 01:35:08;;;;;;;5.87;5.40;;;;;;;13.56;75.76;100082.28;5122861;27;20206;-82
2024/03/15 01:37:36;;;;;;;5.17;4.77;;;;;;;13.59;75.64;100081.31;5124083;27;20269;-81
2024/03/15 01:40:03;;;;;;;5.13;4.73;;;;;;;13.64;75.39;100082.84;5123221;27;20779;-82
2024/03/15 01:42:29;;;;;;;6.17;5.77;;;;;;;13.54;75.30;100083.22;5123313;27;20566;-82
2024/03/15 01:44:56;;;;;;;5.47;5.07;;;;;;;13.63;75.65;100093.41;5119161;28;20225;-82
2024/03/15 01:47:25;;;;;;;5.33;4.93;;;;;;;13.61;75.51;100098.69;5118307;27;20667;-82
2024/03/15 01:49:53;;;;;;;5.27;4.87;;;;;;;13.60;75.98;100083.03;5122867;27;20317;-82
2024/03/15 01:52:20;;;;;;;6.00;5.60;;;;;;;13.43;75.55;100088.88;5122654;27;20217;-82
2024/03/15 01:54:46;;;;;;;5.50;5.10;;;;;;;13.59;75.56;100086.56;5122948;27;20277;-82
2024/03/15 01:57:12;;;;;;;6.20;5.67;;;;;;;13.66;75.73;100088.91;5123075;27;20206;-80
2024/03/15 01:59:39;;;;;;;5.40;5.00;;;;;;;13.66;75.66;100088.03;5123265;27;20364;-81
2024/03/15 02:02:05;;;;;;;5.37;4.97;;;;;;;13.60;75.96;100083.03;5123177;27;20206;-82
2024/03/15 02:04:33;;;;;;;5.73;5.30;;;;;;;13.38;75.98;100088.19;5123259;27;20702;-81
2024/03/15 02:07:00;;;;;;;6.20;5.70;;;;;;;13.57;75.80;100077.88;5123443;27;20258;-82
2024/03/15 02:09:28;;;;;;;6.00;5.60;;;;;;;13.66;75.97;100070.53;5122639;27;20269;-82
2024/03/15 02:11:54;;;;;;;5.97;5.57;;;;;;;13.70;75.79;100077.38;5123229;27;20217;-82
2024/03/15 02:14:21;;;;;;;5.80;5.40;;;;;;;13.74;75.69;100074.66;5119202;28;20264;-83
2024/03/15 02:16:47;;;;;;;5.57;5.07;;;;;;;13.76;75.80;100076.28;5121108;27;20200;-83
2024/03/15 02:19:14;;;;;;;5.40;4.90;;;;;;;13.66;76.04;100077.56;5122664;27;20231;-82
2024/03/15 02:21:40;;;;;;;6.07;5.57;;;;;;;13.70;75.94;100074.75;5123163;27;20222;-82
2024/03/15 02:24:07;;;;;;;5.40;4.70;;;;;;;13.57;76.78;100070.03;5123124;27;20207;-82
2024/03/15 02:26:33;;;;;;;4.97;4.67;;;;;;;13.59;76.85;100057.72;5121763;27;20222;-83
2024/03/15 02:29:02;;;;;;;5.03;4.70;;;;;;;13.54;77.22;100042.16;5124932;27;20226;-84
2024/03/15 02:31:29;;;;;;;5.70;5.20;;;;;;;13.56;77.66;100035.09;5125193;27;20678;-82
2024/03/15 02:33:55;;;;;;;5.87;5.47;;;;;;;13.56;77.60;100021.97;5122516;27;20204;-82
2024/03/15 02:36:22;;;;;;;4.73;4.43;;;;;;;13.46;78.01;100018.84;5122148;27;20699;-83
2024/03/15 02:38:48;;;;;;;5.63;5.23;;;;;;;13.49;77.87;100010.84;5122379;27;20207;-82
2024/03/15 02:41:15;;;;;;;5.10;4.70;;;;;;;13.49;77.74;100005.59;5121764;27;20226;-83
2024/03/15 02:43:42;;;;;;;5.93;5.50;;;;;;;13.51;77.81;99997.69;5122469;27;20240;-82
2024/03/15 02:46:08;;;;;;;5.90;5.50;;;;;;;13.47;77.79;100007.41;5118033;28;20222;-82
2024/03/15 02:48:35;;;;;;;6.33;5.77;;;;;;;13.51;77.45;100008.16;5101852;28;20207;-83
2024/03/15 02:51:02;;;;;;;5.23;4.83;;;;;;;13.50;77.98;99988.13;5101545;28;20602;-83
2024/03/15 02:53:28;;;;;;;5.43;5.10;;;;;;;13.43;78.04;99990.09;5101349;28;20205;-82
2024/03/15 02:55:55;;;;;;;5.20;4.90;;;;;;;13.47;78.24;99988.22;5101400;28;20251;-82
2024/03/15 02:58:21;;;;;;;5.70;5.20;;;;;;;13.45;78.26;99977.78;5101545;28;20201;-81
2024/03/15 03:00:48;;;;;;;6.50;5.90;;;;;;;13.30;78.44;99981.00;5101766;28;20227;-82
2024/03/15 03:03:14;;;;;;;6.30;5.90;;;;;;;13.33;79.09;99969.56;5101402;28;20214;-81
2024/03/15 03:05:41;;;;;;;6.10;5.63;;;;;;;13.29;79.26;99951.31;5101373;28;20248;-82
2024/03/15 03:08:07;;;;;;;5.37;5.07;;;;;;;13.21;79.89;99947.25;5101071;28;20715;-83
2024/03/15 03:10:34;;;;;;;5.80;5.30;;;;;;;13.22;79.88;99934.09;5100668;28;20247;-82
2024/03/15 03:13:01;;;;;;;6.70;6.20;;;;;;;13.27;79.57;99920.78;5102618;27;20221;-82
2024/03/15 03:15:28;;;;;;;6.07;5.67;;;;;;;13.28;79.00;99933.00;5117639;28;20198;-82
2024/03/15 03:17:56;;;;;;;8.43;7.20;;;;;;;13.18;79.35;99936.84;5117350;28;20754;-82
2024/03/15 03:20:23;;;;;;;6.87;6.47;;;;;;;13.24;79.07;99937.50;5101547;28;20230;-83
2024/03/15 03:22:51;;;;;;;6.67;6.17;;;;;;;13.26;79.05;99930.44;5101234;28;20220;-82
2024/03/15 03:25:18;;;;;;;6.50;5.90;;;;;;;13.24;78.75;99929.63;5100708;28;20676;-82
2024/03/15 03:27:44;;;;;;;6.70;6.10;;;;;;;13.19;78.79;99942.06;5101342;28;20220;-81
2024/03/15 03:30:11;;;;;;;6.43;5.93;;;;;;;13.20;78.88;99927.16;5101393;28;20222;-82
2024/03/15 03:32:38;;;;;;;7.03;6.53;;;;;;;13.18;78.33;99936.84;5100998;28;20206;-82
2024/03/15 03:35:05;;;;;;;6.10;5.70;;;;;;;13.24;78.52;99941.88;5100213;28;20210;-82
2024/03/15 03:37:31;;;;;;;7.07;6.47;;;;;;;13.24;78.47;99942.75;5100630;28;20203;-83
2024/03/15 03:39:58;;;;;;;6.90;6.40;;;;;;;13.08;78.65;99947.72;5100830;28;20229;-82
2024/03/15 03:42:25;;;;;;;7.37;6.87;;;;;;;13.05;78.83;99953.03;5101069;28;20241;-80
2024/03/15 03:44:51;;;;;;;6.60;6.20;;;;;;;13.09;78.37;99946.78;5117982;27;20206;-82
2024/03/15 03:47:19;;;;;;;6.70;6.13;;;;;;;13.07;78.16;99950.38;5119392;28;20226;-83
2024/03/15 03:49:47;;;;;;;7.93;5.90;;;;;;;13.09;78.34;99946.78;5102570;28;20293;-82
2024/03/15 03:52:13;;;;;;;6.00;5.53;;;;;;;13.06;78.32;99946.91;5102246;28;20243;-82
2024/03/15 03:54:40;;;;;;;6.10;5.60;;;;;;;13.06;78.56;99946.03;5103154;28;20209;-81
2024/03/15 03:57:06;;;;;;;7.53;6.93;;;;;;;12.89;78.44;99958.00;5102029;28;20205;-81
2024/03/15 03:59:33;;;;;;;6.37;5.97;;;;;;;12.87;78.69;99936.25;5099760;28;20258;-82
2024/03/15 04:01:59;;;;;;;6.13;5.73;;;;;;;12.72;79.62;99926.31;5100529;28;20225;-81
2024/03/15 04:04:26;;;;;;;5.97;5.50;;;;;;;12.69;79.81;99911.56;5100528;28;20217;-81
2024/03/15 04:06:52;;;;;;;6.63;6.23;;;;;;;12.67;80.14;99907.31;5100039;28;20290;-81
2024/03/15 04:09:19;;;;;;;6.77;6.27;;;;;;;12.65;80.71;99896.03;5099544;28;20371;-83
2024/03/15 04:11:47;;;;;;;6.17;5.70;;;;;;;12.74;80.58;99885.22;5099869;28;20609;-82
2024/03/15 04:14:14;;;;;;;7.00;6.47;;;;;;;12.83;80.08;99886.66;5107445;28;20251;-82
2024/03/15 04:16:42;;;;;;;6.33;5.93;;;;;;;12.64;80.04;99903.03;5116472;28;20216;-82
2024/03/15 04:19:09;;;;;;;6.63;6.13;;;;;;;12.66;79.89;99893.34;5116643;28;20216;-80
2024/03/15 04:21:36;;;;;;;6.07;5.57;;;;;;;12.65;80.38;99901.28;5116682;28;20568;-82
2024/03/15 04:24:05;;;;;;;6.70;6.20;;;;;;;12.67;80.41;99892.44;5117385;28;20205;-82
2024/03/15 04:26:32;;;;;;;6.60;6.00;;;;;;;12.64;80.14;99899.56;5117051;28;20226;-80
2024/03/15 04:28:58;;;;;;;6.53;6.03;;;;;;;12.71;80.41;99909.75;5117467;28;20206;-83
2024/03/15 04:31:25;;;;;;;6.73;6.23;;;;;;;12.75;80.15;99910.50;5116887;28;20206;-82
2024/03/15 04:33:51;;;;;;;6.93;6.33;;;;;;;12.63;79.78;99917.03;5116602;28;20214;-82
2024/03/15 04:36:18;;;;;;;7.00;6.40;;;;;;;12.54;79.89;99917.34;5116472;28;20202;-81
2024/03/15 04:38:44;;;;;;;5.70;5.30;;;;;;;12.59;80.08;99910.19;5116117;28;20220;-83
2024/03/15 04:41:11;;;;;;;6.00;5.60;;;;;;;12.57;79.93;99901.56;5116358;28;20234;-82
2024/03/15 04:43:37;;;;;;;5.27;4.87;;;;;;;12.56;79.99;99915.53;5120997;28;20200;-83
2024/03/15 04:46:04;;;;;;;5.97;5.57;;;;;;;12.44;79.77;99915.97;5120415;28;20224;-83
2024/03/15 04:48:30;;;;;;;5.87;5.37;;;;;;;12.50;79.98;99913.13;5120481;28;20289;-83
2024/03/15 04:50:57;;;;;;;5.93;5.43;;;;;;;12.45;79.95;99915.09;5119335;28;20325;-83
2024/03/15 04:53:23;;;;;;;5.70;5.20;;;;;;;12.45;79.61;99915.94;5121259;28;20200;-83
2024/03/15 04:55:50;;;;;;;5.47;5.17;;;;;;;12.43;79.54;99916.91;5121320;28;20603;-83
2024/03/15 04:58:16;;;;;;;5.83;5.43;;;;;;;12.38;79.20;99910.97;5121210;28;20206;-82
2024/03/15 05:00:43;;;;;;;6.60;5.97;;;;;;;12.28;80.05;99907.81;5120742;28;20224;-82
2024/03/15 05:03:11;;;;;;;6.73;6.23;;;;;;;12.09;80.40;99897.97;5120922;27;20272;-83
2024/03/15 05:05:38;;;;;;;6.50;5.90;;;;;;;12.12;80.55;99889.16;5124406;27;20292;-82
2024/03/15 05:08:05;;;;;;;6.60;5.47;;;;;;;12.16;81.14;99876.84;5124587;27;20259;-80
2024/03/15 05:10:31;;;;;;;6.23;5.80;;;;;;;12.05;81.13;99869.34;5124026;27;20749;-82
2024/03/15 05:12:58;;;;;;;6.07;5.60;;;;;;;12.08;81.30;99869.25;5124004;27;20209;-82
2024/03/15 05:15:24;;;;;;;6.03;5.60;;;;;;;12.02;81.74;99859.00;5116918;27;20205;-83
2024/03/15 05:17:51;;;;;;;7.17;6.57;;;;;;;12.08;81.72;99853.56;5123401;27;20205;-83
2024/03/15 05:20:18;;;;;;;6.63;6.10;;;;;;;12.06;82.29;99848.34;5123980;27;20698;-81
2024/03/15 05:22:44;;;;;;;6.37;5.93;;;;;;;12.03;82.18;99838.03;5123911;27;20625;-81
2024/03/15 05:25:14;;;;;;;6.70;6.20;;;;;;;12.03;82.37;99835.41;5123305;27;20237;-83
2024/03/15 05:27:40;;;;;;;6.93;6.40;;;;;;;12.00;82.48;99829.41;5123748;27;20226;-81
2024/03/15 05:30:07;;;;;;;6.87;6.17;;;;;;;11.99;82.99;99825.97;5122618;27;20224;-81
2024/03/15 05:32:33;;;;;;;7.07;6.47;;;;;;;12.00;83.22;99819.81;5123450;27;20203;-82
2024/03/15 05:35:00;;;;;;;7.17;6.57;;;;;;;11.96;83.11;99810.34;5124083;27;20267;-83
2024/03/15 05:37:27;;;;;;;6.70;6.20;;;;;;;11.98;83.10;99807.69;5124101;27;20227;-83
2024/03/15 05:39:54;;;;;;;7.03;6.53;;;;;;;11.95;83.17;99806.00;5124146;27;20319;-82
2024/03/15 05:42:20;;;;;;;7.70;7.03;;;;;;;11.90;83.79;99803.56;5124193;27;20235;-83
2024/03/15 05:44:47;;;;;;;7.60;7.00;;;;;;;11.94;83.93;99799.09;5119853;28;20567;-83
2024/03/15 05:47:13;;;;;;;7.53;6.97;;;;;;;11.87;84.02;99800.16;5112053;28;20234;-80
2024/03/15 05:49:40;;;;;;;6.73;6.23;;;;;;;11.87;84.65;99787.97;5102637;28;20220;-83
2024/03/15 05:52:10;;;;;;;6.47;5.80;;;;;;;11.91;84.63;99780.88;5103124;28;20244;-82
2024/03/15 05:54:36;;;;;;;7.37;6.87;;;;;;;11.91;84.70;99780.88;5102501;28;20201;-83
2024/03/15 05:57:04;;;;;;;7.93;7.23;;;;;;;11.90;84.84;99766.97;5102497;28;20214;-83
2024/03/15 05:59:30;;;;;;;7.40;6.80;;;;;;;11.96;85.13;99771.13;5102132;28;20230;-82
2024/03/15 06:01:57;;;;;;;8.00;7.30;;;;;;;12.06;84.54;99772.50;5103078;28;20211;-82
2024/03/15 06:04:23;;;;;;;7.60;6.90;;;;;;;12.06;84.65;99777.72;5102304;28;20204;-81
2024/03/15 06:06:50;;;;;;;7.80;7.10;;;;;;;12.11;84.51;99778.44;5102161;28;20719;-82
2024/03/15 06:09:16;;;;;;;7.53;7.03;;;;;;;12.23;84.09;99776.25;5101859;28;20200;-81
2024/03/15 06:11:43;;;;;;;7.77;7.17;;;;;;;12.21;83.97;99791.16;5101899;28;20202;-81
2024/03/15 06:14:11;;;;;;;7.87;7.17;;;;;;;12.35;84.13;99780.19;5112194;27;20217;-82
2024/03/15 06:16:38;;;;;;;7.77;7.07;;;;;;;12.41;84.12;99790.47;5118684;28;20917;-82
2024/03/15 06:19:05;;;;;;;7.83;7.13;;;;;;;12.46;83.78;99791.97;5101949;28;20205;-82
2024/03/15 06:21:31;;;;;;;7.10;6.60;;;;;;;12.56;84.04;99802.13;5102315;28;20248;-83
2024/03/15 06:23:57;;;;;;;7.37;6.77;;;;;;;12.61;83.95;99808.88;5103100;28;20209;-82
2024/03/15 06:26:24;;;;;;;7.60;7.00;;;;;;;12.55;84.13;99793.41;5103308;28;20271;-81
2024/03/15 06:28:52;;;;;;;8.13;7.53;;;;;;;12.67;84.01;99798.19;5102049;28;20206;-81
2024/03/15 06:31:19;;;;;;;7.43;6.93;;;;;;;12.69;83.79;99806.84;5101031;28;20253;-82
2024/03/15 06:33:47;;;;;;;6.87;6.40;;;;;;;12.84;84.25;99802.78;5118016;27;20208;-80
2024/03/15 06:36:16;;;;;;;7.60;6.80;;;;;;;12.86;83.77;99794.84;5123190;27;20663;-81
2024/03/15 06:38:53;;;;;;;6.93;6.43;;;;;;;12.89;84.69;99803.44;5123420;27;20210;-81
2024/03/15 06:41:29;;;;;;;8.07;7.30;;;;;;;12.94;83.63;99808.50;5124717;27;20244;-82
2024/03/15 06:43:59;;;;;;;7.93;7.33;;;;;;;13.02;81.78;99835.28;5125372;27;20573;-82
2024/03/15 06:46:29;;;;;;;8.60;7.80;;;;;;;13.10;80.98;99861.16;5119086;28;20288;-83
2024/03/15 06:48:56;;;;;;;7.50;6.90;;;;;;;13.15;80.83;99885.44;5101899;28;20211;-83
2024/03/15 06:54:08;;;;;;;7.17;6.50;;;;;;;13.35;80.91;99897.78;5114356;27;20203;-83
2024/03/15 06:56:35;;;;;;;7.80;7.20;;;;;;;13.28;80.50;99901.56;5121085;27;20194;-81
2024/03/15 06:59:02;;;;;;;7.50;6.80;;;;;;;13.32;80.35;99903.16;5120963;27;20237;-84
2024/03/15 07:01:28;;;;;;;7.33;6.73;;;;;;;13.40;80.30;99910.72;5119292;27;20247;-82
2024/03/15 07:03:55;;;;;;;6.87;6.30;;;;;;;13.49;81.17;99905.13;5121332;27;20197;-82
2024/03/15 07:06:21;;;;;;;8.00;7.20;;;;;;;13.40;79.77;99921.19;5120600;27;20200;-83
2024/03/15 07:08:49;;;;;;;6.90;6.40;;;;;;;13.45;79.50;99929.75;5120748;27;20198;-80
2024/03/15 07:11:15;;;;;;;6.03;5.53;;;;;;;13.55;79.73;99936.34;5120305;27;20222;-83
2024/03/15 07:13:42;;;;;;;6.67;6.07;;;;;;;13.59;79.53;99932.66;5118177;27;20199;-83
2024/03/15 07:16:08;;;;;;;6.30;5.80;;;;;;;13.65;79.32;99939.44;5120939;27;20199;-82
2024/03/15 07:18:35;;;;;;;6.50;5.90;;;;;;;13.76;78.82;99947.75;5120646;27;20193;-82
2024/03/15 07:21:01;;;;;;;6.07;5.47;;;;;;;13.75;78.36;99972.25;5118523;27;20580;-82
2024/03/15 07:23:31;;;;;;;6.90;6.20;;;;;;;13.82;78.53;99970.28;5120887;27;20191;-83
2024/03/15 07:25:57;;;;;;;6.27;5.73;;;;;;;13.74;79.25;99974.97;5125452;28;20198;-82
2024/03/15 07:28:24;;;;;;;6.13;5.70;;;;;;;13.82;77.99;99988.63;5132539;27;20223;-81
2024/03/15 07:30:50;;;;;;;6.50;6.00;;;;;;;13.72;77.36;100006.50;5132216;27;20221;-81
2024/03/15 07:33:18;;;;;;;6.07;5.63;;;;;;;13.82;77.28;100025.38;5133692;27;20227;-83
2024/03/15 07:35:46;;;;;;;6.73;6.23;;;;;;;13.91;76.85;100030.22;5128704;28;20210;-81
2024/03/15 07:38:13;;;;;;;6.33;5.83;;;;;;;14.02;76.48;100042.94;5117486;27;20195;-81
2024/03/15 07:40:40;;;;;;;7.87;5.77;;;;;;;14.13;77.25;100035.47;5118915;27;20222;-81
2024/03/15 07:43:08;;;;;;;6.43;6.03;;;;;;;14.08;76.95;100033.03;5115098;27;20198;-82
2024/03/15 07:45:35;;;;;;;6.33;5.90;;;;;;;14.17;77.00;100037.09;5119816;27;20206;-82
2024/03/15 07:48:02;;;;;;;10.10;6.43;;;;;;;14.23;76.65;100047.34;5119088;27;20700;-82
2024/03/15 07:50:28;;;;;;;6.27;5.73;;;;;;;14.20;76.06;100071.06;5116701;27;20599;-83
2024/03/15 07:52:55;;;;;;;9.10;5.67;;;;;;;14.29;76.25;100073.34;5120162;27;20194;-83
2024/03/15 07:55:21;;;;;;;6.00;5.53;;;;;;;14.34;75.70;100082.81;5120478;27;20574;-83
2024/03/15 07:57:48;;;;;;;6.33;5.73;;;;;;;14.38;75.77;100100.16;5120217;27;20189;-82
2024/03/15 08:00:15;;;;;;;6.10;5.60;;;;;;;14.39;75.53;100107.09;5117552;27;20249;-82
2024/03/15 08:02:42;;;;;;;5.40;4.90;;;;;;;14.51;75.85;100098.75;5119914;27;20241;-83
2024/03/15 08:05:12;;;;;;;6.23;5.73;;;;;;;14.49;75.42;100105.81;5120586;27;20202;-82
2024/03/15 08:07:40;;;;;;;5.70;5.27;;;;;;;14.38;74.77;100129.03;5119538;28;20310;-84
2024/03/15 08:10:10;;;;;;;6.03;5.53;;;;;;;14.46;74.86;100129.56;5114863;28;20243;-82
2024/03/15 08:12:37;;;;;;;6.23;5.80;;;;;;;14.44;74.13;100134.88;5120861;27;20247;-82
2024/03/15 08:15:04;;;;;;;6.47;5.97;;;;;;;14.45;75.43;100141.84;5119419;27;20202;-83
2024/03/15 08:17:31;;;;;;;6.10;5.70;;;;;;;14.46;74.32;100125.16;5120108;28;20200;-84
2024/03/15 08:19:57;;;;;;;6.70;6.10;;;;;;;14.61;74.21;100136.88;5118601;28;20218;-82
2024/03/15 08:22:24;;;;;;;5.93;5.43;;;;;;;14.64;74.32;100142.00;5120230;28;20275;-82
2024/03/15 08:24:50;;;;;;;5.53;5.13;;;;;;;14.67;74.75;100130.53;5120020;28;20193;-84
2024/03/15 08:27:17;;;;;;;6.57;5.97;;;;;;;14.74;74.52;100134.59;5118453;28;20248;-83
2024/03/15 08:29:43;;;;;;;6.03;5.53;;;;;;;14.80;74.46;100136.97;5119539;28;20255;-83
2024/03/15 08:32:11;;;;;;;6.47;5.97;;;;;;;14.59;74.04;100145.72;5119861;28;20202;-81
2024/03/15 08:34:37;;;;;;;6.73;6.23;;;;;;;14.81;74.29;100148.34;5118388;28;20210;-82
2024/03/15 08:37:04;;;;;;;6.47;6.03;;;;;;;14.91;74.77;100135.69;5116908;28;20207;-82
2024/03/15 08:39:30;;;;;;;5.73;5.27;;;;;;;14.96;74.94;100136.34;5103600;28;20222;-81
2024/03/15 08:41:57;;;;;;;5.93;5.43;;;;;;;14.86;74.63;100120.94;5105163;27;20206;-81
2024/03/15 08:44:24;;;;;;;6.33;5.93;;;;;;;14.89;73.92;100119.97;5123169;27;20593;-81
2024/03/15 08:46:51;;;;;;;6.07;5.60;;;;;;;15.05;74.49;100130.69;5121089;28;20201;-80
2024/03/15 08:49:17;;;;;;;5.73;5.23;;;;;;;15.07;74.02;100137.59;5104456;28;20303;-81
2024/03/15 08:51:44;;;;;;;5.73;5.23;;;;;;;15.19;74.17;100143.25;5106353;28;20210;-83
2024/03/15 08:54:11;;;;;;;6.47;5.87;;;;;;;15.22;74.60;100145.72;4400706;28;10000825;-81
2024/03/15 08:56:39;;;;;;;6.40;6.00;;;;;;;15.08;74.28;100151.56;5101977;28;20233;-82
2024/03/15 08:59:06;;;;;;;7.83;6.90;;;;;;;15.09;74.39;100142.78;5101575;28;20794;-82
2024/03/15 09:01:34;;;;;;;8.63;6.23;;;;;;;15.20;74.59;100137.06;5101625;28;20793;-85
2024/03/15 09:04:01;;;;;;;6.83;6.23;;;;;;;15.17;73.44;100160.88;5102965;28;20210;-85
2024/03/15 09:06:28;;;;;;;6.40;5.90;;;;;;;15.21;73.70;100154.56;5101323;28;20264;-84
2024/03/15 09:08:56;;;;;;;6.20;5.63;;;;;;;15.31;74.28;100155.88;5101568;28;20230;-85
2024/03/15 09:11:25;;;;;;;6.37;5.77;;;;;;;15.41;74.75;100141.38;5101048;28;20606;-86
2024/03/15 09:13:52;;;;;;;5.80;5.30;;;;;;;15.51;74.68;100133.09;5109831;27;20215;-84
2024/03/15 09:16:20;;;;;;;6.33;5.83;;;;;;;15.37;74.62;100144.22;5121408;27;20210;-86
2024/03/15 09:18:47;;;;;;;6.77;6.07;;;;;;;15.38;74.29;100138.91;5121886;27;20714;-84
2024/03/15 09:21:14;;;;;;;6.50;6.00;;;;;;;15.43;74.89;100131.66;5121241;27;20232;-84
2024/03/15 09:23:41;;;;;;;7.20;6.60;;;;;;;15.42;74.44;100139.59;5121274;27;20246;-85
2024/03/15 09:26:08;;;;;;;6.17;5.67;;;;;;;15.57;74.81;100130.19;5122902;27;20311;-86
2024/03/15 09:28:37;;;;;;;6.33;5.77;;;;;;;15.63;74.67;100130.75;5121394;27;20874;-85
2024/03/15 09:31:08;;;;;;;6.80;6.30;;;;;;;15.68;74.42;100141.09;5122510;27;20228;-85
2024/03/15 09:33:35;;;;;;;6.27;5.87;;;;;;;15.73;74.83;100136.50;5122555;27;20217;-84
2024/03/15 09:36:04;;;;;;;6.77;6.20;;;;;;;15.65;74.05;100152.59;5122715;27;20225;-84
2024/03/15 09:38:31;;;;;;;6.77;6.27;;;;;;;15.67;74.40;100152.53;5121963;27;20198;-85
2024/03/15 09:40:57;;;;;;;6.47;5.97;;;;;;;15.70;74.48;100152.41;5121420;27;20297;-85
2024/03/15 09:43:24;;;;;;;7.27;6.77;;;;;;;15.57;73.59;100165.25;5121853;27;20301;-83
2024/03/15 09:45:50;;;;;;;7.60;7.00;;;;;;;15.67;74.28;100160.44;5119518;28;20241;-84
2024/03/15 09:48:17;;;;;;;7.10;6.60;;;;;;;15.80;74.77;100143.22;5101481;28;20223;-85
2024/03/15 09:50:44;;;;;;;7.47;6.87;;;;;;;15.68;75.35;100155.09;5101787;28;20230;-83
2024/03/15 09:53:11;;;;;;;7.67;6.83;;;;;;;15.69;75.53;100148.06;5102321;28;20200;-85
2024/03/15 09:55:38;;;;;;;7.33;6.83;;;;;;;15.51;74.74;100154.16;5117372;28;20233;-85
2024/03/15 09:58:06;;;;;;;7.17;6.57;;;;;;;15.63;75.70;100129.91;5119919;28;20267;-85
2024/03/15 10:00:33;;;;;;;7.07;6.43;;;;;;;15.67;75.43;100126.22;5118824;28;20234;-85
2024/03/15 10:03:00;;;;;;;8.30;7.60;;;;;;;15.71;75.01;100132.22;5118959;28;20213;-87
2024/03/15 10:05:28;;;;;;;8.03;7.23;;;;;;;15.51;76.81;100122.59;5118347;28;20222;-85
2024/03/15 10:07:54;;;;;;;7.83;7.30;;;;;;;15.41;77.91;100078.25;5118178;28;20253;-85
2024/03/15 10:10:21;;;;;;;7.87;7.17;;;;;;;15.64;77.74;100064.09;5119220;28;20231;-85
2024/03/15 10:12:47;;;;;;;9.03;8.33;;;;;;;15.64;77.17;100066.72;5119376;28;20214;-83
2024/03/15 10:15:13;;;;;;;7.93;7.23;;;;;;;15.80;77.22;100056.34;5118717;27;20256;-84
2024/03/15 10:17:40;;;;;;;8.13;7.43;;;;;;;15.64;76.58;100082.50;5121759;27;20224;-84
2024/03/15 10:20:10;;;;;;;7.73;7.17;;;;;;;15.28;77.10;100091.13;5120619;27;20258;-85
2024/03/15 10:22:38;;;;;;;7.63;7.03;;;;;;;15.60;77.71;100080.06;5122503;27;20258;-85
2024/03/15 10:25:05;;;;;;;8.90;7.43;;;;;;;15.70;76.41;100081.38;5123533;27;20291;-85
2024/03/15 10:27:32;;;;;;;8.07;7.27;;;;;;;15.85;76.70;100082.44;5121893;27;20266;-83
2024/03/15 10:29:58;;;;;;;7.80;7.10;;;;;;;16.03;75.89;100099.16;5121591;27;20223;-85
2024/03/15 10:32:25;;;;;;;8.13;7.43;;;;;;;15.98;75.10;100135.41;5123730;27;20232;-85
2024/03/15 10:34:52;;;;;;;9.63;7.63;;;;;;;16.21;74.72;100144.84;5122538;27;20207;-85
2024/03/15 10:37:21;;;;;;;8.40;7.27;;;;;;;16.06;73.57;100178.03;5122042;27;20202;-84
2024/03/15 10:39:48;;;;;;;7.93;7.33;;;;;;;16.05;74.03;100186.84;5120791;27;20241;-86
2024/03/15 10:42:16;;;;;;;8.17;7.47;;;;;;;15.96;74.74;100179.38;5121092;27;20229;-84
2024/03/15 10:44:43;;;;;;;7.43;6.93;;;;;;;16.15;75.13;100158.31;5116154;28;20321;-84
2024/03/15 10:47:09;;;;;;;7.20;6.70;;;;;;;16.16;75.23;100152.97;5119071;27;20202;-84
2024/03/15 10:49:36;;;;;;;7.33;6.63;;;;;;;16.19;75.02;100163.34;5119052;27;20255;-85
2024/03/15 10:52:03;;;;;;;7.77;7.27;;;;;;;15.72;74.42;100184.78;5120791;27;20209;-85
2024/03/15 10:54:30;;;;;;;7.10;6.67;;;;;;;15.90;75.55;100164.72;5121845;27;20226;-85
2024/03/15 10:56:56;;;;;;;7.53;6.83;;;;;;;15.76;75.12;100157.44;5122053;27;20214;-84
2024/03/15 10:59:23;;;;;;;7.53;6.93;;;;;;;15.82;75.54;100149.25;5120335;27;20229;-85
2024/03/15 11:01:49;;;;;;;7.67;6.97;;;;;;;16.01;76.01;100130.81;5119542;27;20630;-83
2024/03/15 11:04:16;;;;;;;8.00;7.30;;;;;;;15.96;74.53;100155.69;5119478;27;20211;-84
2024/03/15 11:06:42;;;;;;;7.87;7.37;;;;;;;16.15;75.34;100156.50;5119442;27;20213;-84
2024/03/15 11:09:14;;;;;;;7.47;6.87;;;;;;;16.12;74.37;100164.56;5119750;27;20254;-85
2024/03/15 11:11:40;;;;;;;9.77;6.70;;;;;;;16.00;73.30;100186.22;5119288;27;20213;-84
2024/03/15 11:14:13;;;;;;;8.17;7.30;;;;;;;15.99;73.62;100202.91;5115793;28;20225;-84
2024/03/15 11:16:40;;;;;;;7.30;6.70;;;;;;;16.06;73.47;100201.72;5116765;28;20205;-85
2024/03/15 11:19:07;;;;;;;7.83;7.07;;;;;;;15.83;73.71;100203.59;5116812;28;20207;-85
2024/03/15 11:21:33;;;;;;;7.23;6.63;;;;;;;15.93;74.66;100190.03;5115694;28;20218;-84
2024/03/15 11:24:06;;;;;;;7.10;6.53;;;;;;;16.07;75.62;100162.16;5121289;28;20197;-87
2024/03/15 11:26:33;;;;;;;7.97;7.27;;;;;;;16.17;76.38;100141.50;5136771;28;20188;-84
2024/03/15 11:28:59;;;;;;;8.57;7.67;;;;;;;16.28;78.06;100101.50;5130840;28;20873;-85
2024/03/15 11:31:28;;;;;;;7.90;7.30;;;;;;;16.26;76.92;100098.94;5117031;28;20285;-85